sensor_id;sensor_type;location;lat;lon;timestamp;P1;durP1;ratioP1;P2;durP2;ratioP2
68803;SDS011;55787;52.678;13.314;2023-12-20T00:01:01;12.40;;;2.87;;
68803;SDS011;55787;52.678;13.314;2023-12-20T00:03:28;12.50;;;3.88;;
68803;SDS011;55787;52.678;13.314;2023-12-20T00:06:07;13.05;;;3.20;;
68803;SDS011;55787;52.678;13.314;2023-12-20T00:08:34;13.60;;;4.15;;
68803;SDS011;55787;52.678;13.314;2023-12-20T00:11:00;16.58;;;4.20;;
68803;SDS011;55787;52.678;13.314;2023-12-20T00:13:27;14.77;;;4.10;;
68803;SDS011;55787;52.678;13.314;2023-12-20T00:15:53;14.75;;;4.30;;
68803;SDS011;55787;52.678;13.314;2023-12-20T00:18:20;15.75;;;4.03;;
68803;SDS011;55787;52.678;13.314;2023-12-20T00:20:46;14.50;;;4.38;;
68803;SDS011;55787;52.678;13.314;2023-12-20T00:23:13;16.58;;;4.55;;
68803;SDS011;55787;52.678;13.314;2023-12-20T00:25:40;17.23;;;4.43;;
68803;SDS011;55787;52.678;13.314;2023-12-20T00:28:06;14.23;;;4.10;;
68803;SDS011;55787;52.678;13.314;2023-12-20T00:30:33;14.82;;;4.28;;
68803;SDS011;55787;52.678;13.314;2023-12-20T00:33:00;13.65;;;3.80;;
68803;SDS011;55787;52.678;13.314;2023-12-20T00:35:26;11.93;;;3.40;;
68803;SDS011;55787;52.678;13.314;2023-12-20T00:37:53;11.33;;;3.40;;
68803;SDS011;55787;52.678;13.314;2023-12-20T00:40:20;11.55;;;3.28;;
68803;SDS011;55787;52.678;13.314;2023-12-20T00:42:47;10.13;;;3.22;;
68803;SDS011;55787;52.678;13.314;2023-12-20T00:45:14;11.80;;;3.10;;
68803;SDS011;55787;52.678;13.314;2023-12-20T00:47:40;9.77;;;2.92;;
68803;SDS011;55787;52.678;13.314;2023-12-20T00:50:08;12.90;;;3.57;;
68803;SDS011;55787;52.678;13.314;2023-12-20T00:52:35;10.05;;;2.83;;
68803;SDS011;55787;52.678;13.314;2023-12-20T00:55:02;9.48;;;3.03;;
68803;SDS011;55787;52.678;13.314;2023-12-20T00:57:30;9.63;;;3.25;;
68803;SDS011;55787;52.678;13.314;2023-12-20T00:59:57;10.57;;;3.10;;
68803;SDS011;55787;52.678;13.314;2023-12-20T01:02:24;10.47;;;3.30;;
68803;SDS011;55787;52.678;13.314;2023-12-20T01:04:51;9.00;;;3.20;;
68803;SDS011;55787;52.678;13.314;2023-12-20T01:07:18;11.75;;;3.30;;
68803;SDS011;55787;52.678;13.314;2023-12-20T01:09:45;9.48;;;2.92;;
68803;SDS011;55787;52.678;13.314;2023-12-20T01:12:12;8.70;;;2.75;;
68803;SDS011;55787;52.678;13.314;2023-12-20T01:14:38;8.87;;;3.10;;
68803;SDS011;55787;52.678;13.314;2023-12-20T01:17:06;10.07;;;3.05;;
68803;SDS011;55787;52.678;13.314;2023-12-20T01:19:33;8.30;;;2.50;;
68803;SDS011;55787;52.678;13.314;2023-12-20T01:21:59;9.30;;;2.60;;
68803;SDS011;55787;52.678;13.314;2023-12-20T01:24:26;7.25;;;2.03;;
68803;SDS011;55787;52.678;13.314;2023-12-20T01:26:53;8.40;;;2.40;;
68803;SDS011;55787;52.678;13.314;2023-12-20T01:29:19;9.25;;;2.38;;
68803;SDS011;55787;52.678;13.314;2023-12-20T01:31:46;8.52;;;2.35;;
68803;SDS011;55787;52.678;13.314;2023-12-20T01:34:13;8.85;;;2.47;;
68803;SDS011;55787;52.678;13.314;2023-12-20T01:36:39;8.30;;;2.33;;
68803;SDS011;55787;52.678;13.314;2023-12-20T01:39:06;10.10;;;2.60;;
68803;SDS011;55787;52.678;13.314;2023-12-20T01:41:50;8.85;;;2.20;;
68803;SDS011;55787;52.678;13.314;2023-12-20T01:44:16;8.15;;;2.67;;
68803;SDS011;55787;52.678;13.314;2023-12-20T01:46:43;8.18;;;2.40;;
68803;SDS011;55787;52.678;13.314;2023-12-20T01:49:10;9.25;;;2.47;;
68803;SDS011;55787;52.678;13.314;2023-12-20T01:51:37;8.77;;;1.63;;
68803;SDS011;55787;52.678;13.314;2023-12-20T01:54:04;7.93;;;2.13;;
68803;SDS011;55787;52.678;13.314;2023-12-20T01:56:31;7.57;;;1.92;;
68803;SDS011;55787;52.678;13.314;2023-12-20T01:58:58;9.60;;;2.17;;
68803;SDS011;55787;52.678;13.314;2023-12-20T02:01:26;8.63;;;2.50;;
68803;SDS011;55787;52.678;13.314;2023-12-20T02:03:55;8.97;;;2.30;;
68803;SDS011;55787;52.678;13.314;2023-12-20T02:06:23;8.48;;;2.17;;
68803;SDS011;55787;52.678;13.314;2023-12-20T02:08:50;9.63;;;2.50;;
68803;SDS011;55787;52.678;13.314;2023-12-20T02:11:17;11.02;;;2.63;;
68803;SDS011;55787;52.678;13.314;2023-12-20T02:13:44;9.43;;;2.28;;
68803;SDS011;55787;52.678;13.314;2023-12-20T02:16:11;9.30;;;2.50;;
68803;SDS011;55787;52.678;13.314;2023-12-20T02:18:37;9.65;;;2.53;;
68803;SDS011;55787;52.678;13.314;2023-12-20T02:21:05;8.90;;;2.22;;
68803;SDS011;55787;52.678;13.314;2023-12-20T02:23:32;9.32;;;2.45;;
68803;SDS011;55787;52.678;13.314;2023-12-20T02:25:59;8.98;;;2.45;;
68803;SDS011;55787;52.678;13.314;2023-12-20T02:28:26;7.70;;;2.00;;
68803;SDS011;55787;52.678;13.314;2023-12-20T02:30:53;9.55;;;2.20;;
68803;SDS011;55787;52.678;13.314;2023-12-20T02:33:19;9.02;;;1.88;;
68803;SDS011;55787;52.678;13.314;2023-12-20T02:35:46;9.65;;;1.77;;
68803;SDS011;55787;52.678;13.314;2023-12-20T02:38:14;8.18;;;1.75;;
68803;SDS011;55787;52.678;13.314;2023-12-20T02:40:40;7.30;;;1.40;;
68803;SDS011;55787;52.678;13.314;2023-12-20T02:43:14;9.35;;;1.80;;
68803;SDS011;55787;52.678;13.314;2023-12-20T02:45:41;6.97;;;1.63;;
68803;SDS011;55787;52.678;13.314;2023-12-20T02:48:08;8.70;;;1.40;;
68803;SDS011;55787;52.678;13.314;2023-12-20T02:50:34;7.70;;;1.48;;
68803;SDS011;55787;52.678;13.314;2023-12-20T02:53:01;8.20;;;1.60;;
68803;SDS011;55787;52.678;13.314;2023-12-20T02:55:28;6.30;;;1.30;;
68803;SDS011;55787;52.678;13.314;2023-12-20T02:57:54;7.60;;;1.73;;
68803;SDS011;55787;52.678;13.314;2023-12-20T03:00:21;9.13;;;1.30;;
68803;SDS011;55787;52.678;13.314;2023-12-20T03:02:48;9.30;;;1.27;;
68803;SDS011;55787;52.678;13.314;2023-12-20T03:05:14;9.53;;;1.10;;
68803;SDS011;55787;52.678;13.314;2023-12-20T03:07:41;6.18;;;0.80;;
68803;SDS011;55787;52.678;13.314;2023-12-20T03:10:08;8.18;;;1.10;;
68803;SDS011;55787;52.678;13.314;2023-12-20T03:12:45;6.30;;;1.00;;
68803;SDS011;55787;52.678;13.314;2023-12-20T03:15:12;7.13;;;1.00;;
68803;SDS011;55787;52.678;13.314;2023-12-20T03:17:39;8.07;;;1.13;;
68803;SDS011;55787;52.678;13.314;2023-12-20T03:20:06;7.95;;;0.98;;
68803;SDS011;55787;52.678;13.314;2023-12-20T03:22:34;7.95;;;1.08;;
68803;SDS011;55787;52.678;13.314;2023-12-20T03:25:01;7.78;;;0.82;;
68803;SDS011;55787;52.678;13.314;2023-12-20T03:27:28;11.15;;;1.27;;
68803;SDS011;55787;52.678;13.314;2023-12-20T03:29:54;9.47;;;1.00;;
68803;SDS011;55787;52.678;13.314;2023-12-20T03:32:21;6.75;;;0.80;;
68803;SDS011;55787;52.678;13.314;2023-12-20T03:34:47;7.13;;;1.15;;
68803;SDS011;55787;52.678;13.314;2023-12-20T03:37:15;6.13;;;0.88;;
68803;SDS011;55787;52.678;13.314;2023-12-20T03:39:41;7.50;;;0.90;;
68803;SDS011;55787;52.678;13.314;2023-12-20T03:42:08;11.67;;;1.13;;
68803;SDS011;55787;52.678;13.314;2023-12-20T03:44:38;7.55;;;0.85;;
68803;SDS011;55787;52.678;13.314;2023-12-20T03:47:05;8.98;;;1.00;;
68803;SDS011;55787;52.678;13.314;2023-12-20T03:49:32;9.43;;;1.00;;
68803;SDS011;55787;52.678;13.314;2023-12-20T03:51:59;6.85;;;0.88;;
68803;SDS011;55787;52.678;13.314;2023-12-20T03:54:25;7.30;;;1.00;;
68803;SDS011;55787;52.678;13.314;2023-12-20T03:56:52;10.68;;;0.98;;
68803;SDS011;55787;52.678;13.314;2023-12-20T03:59:19;9.73;;;1.10;;
68803;SDS011;55787;52.678;13.314;2023-12-20T04:01:46;10.15;;;1.27;;
68803;SDS011;55787;52.678;13.314;2023-12-20T04:04:12;9.35;;;1.10;;
68803;SDS011;55787;52.678;13.314;2023-12-20T04:06:39;9.77;;;1.27;;
68803;SDS011;55787;52.678;13.314;2023-12-20T04:09:06;10.65;;;1.00;;
68803;SDS011;55787;52.678;13.314;2023-12-20T04:11:36;10.50;;;1.00;;
68803;SDS011;55787;52.678;13.314;2023-12-20T04:14:03;13.00;;;1.30;;
68803;SDS011;55787;52.678;13.314;2023-12-20T04:16:31;9.05;;;0.85;;
68803;SDS011;55787;52.678;13.314;2023-12-20T04:18:57;9.27;;;1.00;;
68803;SDS011;55787;52.678;13.314;2023-12-20T04:21:24;8.52;;;1.00;;
68803;SDS011;55787;52.678;13.314;2023-12-20T04:23:51;8.20;;;1.00;;
68803;SDS011;55787;52.678;13.314;2023-12-20T04:26:18;9.30;;;0.90;;
68803;SDS011;55787;52.678;13.314;2023-12-20T04:28:44;11.98;;;1.00;;
68803;SDS011;55787;52.678;13.314;2023-12-20T04:31:11;8.80;;;1.10;;
68803;SDS011;55787;52.678;13.314;2023-12-20T04:33:38;6.80;;;0.90;;
68803;SDS011;55787;52.678;13.314;2023-12-20T04:36:04;9.15;;;0.88;;
68803;SDS011;55787;52.678;13.314;2023-12-20T04:38:31;8.50;;;0.98;;
68803;SDS011;55787;52.678;13.314;2023-12-20T04:40:58;10.85;;;0.90;;
68803;SDS011;55787;52.678;13.314;2023-12-20T04:43:25;8.23;;;0.77;;
68803;SDS011;55787;52.678;13.314;2023-12-20T04:45:51;8.88;;;0.80;;
68803;SDS011;55787;52.678;13.314;2023-12-20T04:48:18;13.57;;;1.10;;
68803;SDS011;55787;52.678;13.314;2023-12-20T04:50:45;9.90;;;0.90;;
68803;SDS011;55787;52.678;13.314;2023-12-20T04:53:12;10.38;;;1.02;;
68803;SDS011;55787;52.678;13.314;2023-12-20T04:55:38;8.43;;;0.80;;
68803;SDS011;55787;52.678;13.314;2023-12-20T04:58:05;10.48;;;1.10;;
68803;SDS011;55787;52.678;13.314;2023-12-20T05:00:32;11.10;;;0.82;;
68803;SDS011;55787;52.678;13.314;2023-12-20T05:02:59;9.32;;;0.80;;
68803;SDS011;55787;52.678;13.314;2023-12-20T05:05:26;7.72;;;0.80;;
68803;SDS011;55787;52.678;13.314;2023-12-20T05:07:52;9.47;;;0.90;;
68803;SDS011;55787;52.678;13.314;2023-12-20T05:10:19;7.68;;;0.73;;
68803;SDS011;55787;52.678;13.314;2023-12-20T05:12:46;9.73;;;1.02;;
68803;SDS011;55787;52.678;13.314;2023-12-20T05:15:12;8.32;;;0.80;;
68803;SDS011;55787;52.678;13.314;2023-12-20T05:17:39;10.57;;;0.95;;
68803;SDS011;55787;52.678;13.314;2023-12-20T05:20:07;7.07;;;0.90;;
68803;SDS011;55787;52.678;13.314;2023-12-20T05:22:34;6.63;;;1.30;;
68803;SDS011;55787;52.678;13.314;2023-12-20T05:25:00;10.60;;;1.10;;
68803;SDS011;55787;52.678;13.314;2023-12-20T05:27:27;10.38;;;1.35;;
68803;SDS011;55787;52.678;13.314;2023-12-20T05:29:54;11.02;;;1.20;;
68803;SDS011;55787;52.678;13.314;2023-12-20T05:32:24;11.90;;;1.33;;
68803;SDS011;55787;52.678;13.314;2023-12-20T05:34:51;13.00;;;1.38;;
68803;SDS011;55787;52.678;13.314;2023-12-20T05:37:18;14.05;;;0.98;;
68803;SDS011;55787;52.678;13.314;2023-12-20T05:39:45;9.15;;;1.42;;
68803;SDS011;55787;52.678;13.314;2023-12-20T05:42:12;10.88;;;1.40;;
68803;SDS011;55787;52.678;13.314;2023-12-20T05:44:38;16.57;;;1.80;;
68803;SDS011;55787;52.678;13.314;2023-12-20T05:47:05;13.85;;;2.03;;
68803;SDS011;55787;52.678;13.314;2023-12-20T05:49:31;11.07;;;1.92;;
68803;SDS011;55787;52.678;13.314;2023-12-20T05:51:58;17.25;;;2.83;;
68803;SDS011;55787;52.678;13.314;2023-12-20T05:54:25;14.95;;;2.72;;
68803;SDS011;55787;52.678;13.314;2023-12-20T05:56:51;13.90;;;2.17;;
68803;SDS011;55787;52.678;13.314;2023-12-20T05:59:18;11.52;;;2.17;;
68803;SDS011;55787;52.678;13.314;2023-12-20T06:01:44;9.95;;;2.10;;
68803;SDS011;55787;52.678;13.314;2023-12-20T06:04:11;10.95;;;1.52;;
68803;SDS011;55787;52.678;13.314;2023-12-20T06:06:41;13.18;;;1.48;;
68803;SDS011;55787;52.678;13.314;2023-12-20T06:09:09;6.77;;;0.80;;
68803;SDS011;55787;52.678;13.314;2023-12-20T06:11:36;13.65;;;1.48;;
68803;SDS011;55787;52.678;13.314;2023-12-20T06:14:03;11.05;;;1.10;;
68803;SDS011;55787;52.678;13.314;2023-12-20T06:16:30;11.70;;;1.40;;
68803;SDS011;55787;52.678;13.314;2023-12-20T06:18:56;8.85;;;1.55;;
68803;SDS011;55787;52.678;13.314;2023-12-20T06:21:23;8.67;;;0.97;;
68803;SDS011;55787;52.678;13.314;2023-12-20T06:23:50;13.45;;;1.48;;
68803;SDS011;55787;52.678;13.314;2023-12-20T06:26:17;8.77;;;1.30;;
68803;SDS011;55787;52.678;13.314;2023-12-20T06:28:43;11.18;;;1.52;;
68803;SDS011;55787;52.678;13.314;2023-12-20T06:31:10;12.90;;;1.15;;
68803;SDS011;55787;52.678;13.314;2023-12-20T06:33:36;10.23;;;1.30;;
68803;SDS011;55787;52.678;13.314;2023-12-20T06:36:06;6.55;;;0.88;;
68803;SDS011;55787;52.678;13.314;2023-12-20T06:38:33;9.98;;;1.00;;
68803;SDS011;55787;52.678;13.314;2023-12-20T06:41:00;9.80;;;1.27;;
68803;SDS011;55787;52.678;13.314;2023-12-20T06:43:26;9.93;;;1.02;;
68803;SDS011;55787;52.678;13.314;2023-12-20T06:46:11;9.97;;;1.10;;
68803;SDS011;55787;52.678;13.314;2023-12-20T06:48:39;7.70;;;1.27;;
68803;SDS011;55787;52.678;13.314;2023-12-20T06:51:10;6.57;;;0.82;;
68803;SDS011;55787;52.678;13.314;2023-12-20T06:53:38;4.13;;;0.60;;
68803;SDS011;55787;52.678;13.314;2023-12-20T06:56:05;11.52;;;1.05;;
68803;SDS011;55787;52.678;13.314;2023-12-20T06:58:32;10.60;;;1.30;;
68803;SDS011;55787;52.678;13.314;2023-12-20T07:00:58;11.73;;;1.52;;
68803;SDS011;55787;52.678;13.314;2023-12-20T07:03:25;7.90;;;0.95;;
68803;SDS011;55787;52.678;13.314;2023-12-20T07:05:51;8.02;;;0.85;;
68803;SDS011;55787;52.678;13.314;2023-12-20T07:08:18;9.27;;;0.90;;
68803;SDS011;55787;52.678;13.314;2023-12-20T07:10:45;11.37;;;0.93;;
68803;SDS011;55787;52.678;13.314;2023-12-20T07:13:12;10.18;;;1.20;;
68803;SDS011;55787;52.678;13.314;2023-12-20T07:15:39;10.90;;;0.90;;
68803;SDS011;55787;52.678;13.314;2023-12-20T07:18:06;4.43;;;0.40;;
68803;SDS011;55787;52.678;13.314;2023-12-20T07:20:33;11.30;;;1.30;;
68803;SDS011;55787;52.678;13.314;2023-12-20T07:23:00;11.33;;;1.03;;
68803;SDS011;55787;52.678;13.314;2023-12-20T07:25:27;5.72;;;0.60;;
68803;SDS011;55787;52.678;13.314;2023-12-20T07:27:54;7.78;;;0.98;;
68803;SDS011;55787;52.678;13.314;2023-12-20T07:30:20;10.77;;;1.45;;
68803;SDS011;55787;52.678;13.314;2023-12-20T07:32:47;11.48;;;1.40;;
68803;SDS011;55787;52.678;13.314;2023-12-20T07:35:15;10.80;;;1.27;;
68803;SDS011;55787;52.678;13.314;2023-12-20T07:37:43;7.75;;;1.30;;
68803;SDS011;55787;52.678;13.314;2023-12-20T07:40:11;10.85;;;1.60;;
68803;SDS011;55787;52.678;13.314;2023-12-20T07:42:37;7.80;;;1.10;;
68803;SDS011;55787;52.678;13.314;2023-12-20T07:45:04;12.73;;;1.30;;
68803;SDS011;55787;52.678;13.314;2023-12-20T07:47:31;13.03;;;1.73;;
68803;SDS011;55787;52.678;13.314;2023-12-20T07:49:58;7.40;;;0.90;;
68803;SDS011;55787;52.678;13.314;2023-12-20T07:52:24;9.68;;;1.58;;
68803;SDS011;55787;52.678;13.314;2023-12-20T07:54:52;11.27;;;1.45;;
68803;SDS011;55787;52.678;13.314;2023-12-20T07:57:19;10.25;;;1.23;;
68803;SDS011;55787;52.678;13.314;2023-12-20T07:59:45;9.60;;;0.97;;
68803;SDS011;55787;52.678;13.314;2023-12-20T08:02:12;8.77;;;1.20;;
68803;SDS011;55787;52.678;13.314;2023-12-20T08:04:38;10.32;;;1.40;;
68803;SDS011;55787;52.678;13.314;2023-12-20T08:07:05;10.30;;;1.88;;
68803;SDS011;55787;52.678;13.314;2023-12-20T08:09:32;11.20;;;1.40;;
68803;SDS011;55787;52.678;13.314;2023-12-20T08:12:00;10.00;;;1.33;;
68803;SDS011;55787;52.678;13.314;2023-12-20T08:14:27;7.78;;;1.17;;
68803;SDS011;55787;52.678;13.314;2023-12-20T08:16:54;11.93;;;1.50;;
68803;SDS011;55787;52.678;13.314;2023-12-20T08:19:20;11.00;;;1.30;;
68803;SDS011;55787;52.678;13.314;2023-12-20T08:21:47;8.13;;;1.10;;
68803;SDS011;55787;52.678;13.314;2023-12-20T08:24:13;10.53;;;0.90;;
68803;SDS011;55787;52.678;13.314;2023-12-20T08:26:40;11.82;;;1.48;;
68803;SDS011;55787;52.678;13.314;2023-12-20T08:29:06;11.45;;;0.75;;
68803;SDS011;55787;52.678;13.314;2023-12-20T08:31:33;13.50;;;1.38;;
68803;SDS011;55787;52.678;13.314;2023-12-20T08:34:00;14.70;;;1.13;;
68803;SDS011;55787;52.678;13.314;2023-12-20T08:36:27;10.10;;;0.93;;
68803;SDS011;55787;52.678;13.314;2023-12-20T08:38:53;8.07;;;1.05;;
68803;SDS011;55787;52.678;13.314;2023-12-20T08:41:21;8.85;;;1.08;;
68803;SDS011;55787;52.678;13.314;2023-12-20T08:43:48;10.82;;;1.23;;
68803;SDS011;55787;52.678;13.314;2023-12-20T08:46:14;9.18;;;1.13;;
68803;SDS011;55787;52.678;13.314;2023-12-20T08:48:41;11.63;;;1.77;;
68803;SDS011;55787;52.678;13.314;2023-12-20T08:51:10;10.32;;;1.35;;
68803;SDS011;55787;52.678;13.314;2023-12-20T08:53:36;9.05;;;0.47;;
68803;SDS011;55787;52.678;13.314;2023-12-20T08:56:03;7.25;;;0.73;;
68803;SDS011;55787;52.678;13.314;2023-12-20T08:58:30;11.27;;;1.20;;
68803;SDS011;55787;52.678;13.314;2023-12-20T09:00:57;8.87;;;1.07;;
68803;SDS011;55787;52.678;13.314;2023-12-20T09:03:24;7.00;;;0.93;;
68803;SDS011;55787;52.678;13.314;2023-12-20T09:05:51;8.98;;;1.20;;
68803;SDS011;55787;52.678;13.314;2023-12-20T09:08:17;10.18;;;0.85;;
68803;SDS011;55787;52.678;13.314;2023-12-20T09:10:44;10.05;;;1.13;;
68803;SDS011;55787;52.678;13.314;2023-12-20T09:13:11;8.63;;;1.00;;
68803;SDS011;55787;52.678;13.314;2023-12-20T09:15:38;8.13;;;0.68;;
68803;SDS011;55787;52.678;13.314;2023-12-20T09:18:05;9.00;;;1.10;;
68803;SDS011;55787;52.678;13.314;2023-12-20T09:20:32;10.90;;;1.10;;
68803;SDS011;55787;52.678;13.314;2023-12-20T09:22:59;8.77;;;1.40;;
68803;SDS011;55787;52.678;13.314;2023-12-20T09:25:26;9.33;;;0.90;;
68803;SDS011;55787;52.678;13.314;2023-12-20T09:27:53;8.95;;;1.10;;
68803;SDS011;55787;52.678;13.314;2023-12-20T09:30:20;12.52;;;1.10;;
68803;SDS011;55787;52.678;13.314;2023-12-20T09:32:53;9.40;;;1.05;;
68803;SDS011;55787;52.678;13.314;2023-12-20T09:35:21;7.78;;;0.57;;
68803;SDS011;55787;52.678;13.314;2023-12-20T09:37:48;9.23;;;1.00;;
68803;SDS011;55787;52.678;13.314;2023-12-20T09:40:17;11.05;;;1.38;;
68803;SDS011;55787;52.678;13.314;2023-12-20T09:42:59;11.45;;;1.10;;
68803;SDS011;55787;52.678;13.314;2023-12-20T09:45:30;8.50;;;1.17;;
68803;SDS011;55787;52.678;13.314;2023-12-20T09:47:58;10.23;;;1.55;;
68803;SDS011;55787;52.678;13.314;2023-12-20T09:50:25;11.37;;;1.27;;
68803;SDS011;55787;52.678;13.314;2023-12-20T09:52:53;8.23;;;1.27;;
68803;SDS011;55787;52.678;13.314;2023-12-20T09:55:20;7.18;;;0.77;;
68803;SDS011;55787;52.678;13.314;2023-12-20T09:57:48;10.30;;;1.23;;
68803;SDS011;55787;52.678;13.314;2023-12-20T10:00:15;7.47;;;0.75;;
68803;SDS011;55787;52.678;13.314;2023-12-20T10:02:50;9.77;;;1.13;;
68803;SDS011;55787;52.678;13.314;2023-12-20T10:05:28;9.10;;;0.93;;
68803;SDS011;55787;52.678;13.314;2023-12-20T10:07:56;6.20;;;0.80;;
68803;SDS011;55787;52.678;13.314;2023-12-20T10:10:23;8.13;;;1.23;;
68803;SDS011;55787;52.678;13.314;2023-12-20T10:13:12;9.15;;;0.95;;
68803;SDS011;55787;52.678;13.314;2023-12-20T10:15:40;11.93;;;1.00;;
68803;SDS011;55787;52.678;13.314;2023-12-20T10:18:08;10.65;;;0.85;;
68803;SDS011;55787;52.678;13.314;2023-12-20T10:20:35;8.77;;;1.20;;
68803;SDS011;55787;52.678;13.314;2023-12-20T10:23:02;16.42;;;1.73;;
68803;SDS011;55787;52.678;13.314;2023-12-20T10:25:29;9.13;;;1.10;;
68803;SDS011;55787;52.678;13.314;2023-12-20T10:28:11;10.70;;;1.40;;
68803;SDS011;55787;52.678;13.314;2023-12-20T10:30:40;9.95;;;0.70;;
68803;SDS011;55787;52.678;13.314;2023-12-20T10:33:07;7.45;;;0.82;;
68803;SDS011;55787;52.678;13.314;2023-12-20T10:35:35;6.68;;;1.10;;
68803;SDS011;55787;52.678;13.314;2023-12-20T10:38:07;11.77;;;1.00;;
68803;SDS011;55787;52.678;13.314;2023-12-20T10:40:35;9.80;;;1.00;;
68803;SDS011;55787;52.678;13.314;2023-12-20T10:43:04;10.77;;;1.23;;
68803;SDS011;55787;52.678;13.314;2023-12-20T10:45:31;8.75;;;1.00;;
68803;SDS011;55787;52.678;13.314;2023-12-20T10:47:58;14.88;;;1.80;;
68803;SDS011;55787;52.678;13.314;2023-12-20T10:50:27;9.32;;;1.00;;
68803;SDS011;55787;52.678;13.314;2023-12-20T10:52:55;12.17;;;1.40;;
68803;SDS011;55787;52.678;13.314;2023-12-20T10:55:22;11.65;;;1.30;;
68803;SDS011;55787;52.678;13.314;2023-12-20T10:57:50;10.18;;;1.30;;
68803;SDS011;55787;52.678;13.314;2023-12-20T11:00:18;8.18;;;1.17;;
68803;SDS011;55787;52.678;13.314;2023-12-20T11:02:45;9.38;;;1.23;;
68803;SDS011;55787;52.678;13.314;2023-12-20T11:07:48;9.35;;;1.63;;
68803;SDS011;55787;52.678;13.314;2023-12-20T11:10:25;10.02;;;1.33;;
68803;SDS011;55787;52.678;13.314;2023-12-20T11:13:06;12.98;;;2.17;;
68803;SDS011;55787;52.678;13.314;2023-12-20T11:15:39;8.30;;;1.27;;
68803;SDS011;55787;52.678;13.314;2023-12-20T11:18:06;8.77;;;1.30;;
68803;SDS011;55787;52.678;13.314;2023-12-20T11:20:36;10.13;;;1.50;;
68803;SDS011;55787;52.678;13.314;2023-12-20T11:23:05;12.80;;;1.75;;
68803;SDS011;55787;52.678;13.314;2023-12-20T11:25:48;13.65;;;1.77;;
68803;SDS011;55787;52.678;13.314;2023-12-20T11:28:21;11.57;;;1.42;;
68803;SDS011;55787;52.678;13.314;2023-12-20T11:30:55;9.87;;;2.13;;
68803;SDS011;55787;52.678;13.314;2023-12-20T11:33:23;12.10;;;2.08;;
68803;SDS011;55787;52.678;13.314;2023-12-20T11:35:56;11.13;;;2.20;;
68803;SDS011;55787;52.678;13.314;2023-12-20T11:38:23;11.50;;;1.60;;
68803;SDS011;55787;52.678;13.314;2023-12-20T11:40:51;10.95;;;1.60;;
68803;SDS011;55787;52.678;13.314;2023-12-20T11:43:30;11.20;;;1.50;;
68803;SDS011;55787;52.678;13.314;2023-12-20T11:46:04;12.93;;;2.10;;
68803;SDS011;55787;52.678;13.314;2023-12-20T11:48:33;11.07;;;1.85;;
68803;SDS011;55787;52.678;13.314;2023-12-20T11:51:01;13.07;;;1.38;;
68803;SDS011;55787;52.678;13.314;2023-12-20T11:53:30;7.22;;;1.50;;
68803;SDS011;55787;52.678;13.314;2023-12-20T11:55:58;7.30;;;1.23;;
68803;SDS011;55787;52.678;13.314;2023-12-20T11:58:25;15.30;;;2.03;;
68803;SDS011;55787;52.678;13.314;2023-12-20T12:00:52;10.50;;;1.60;;
68803;SDS011;55787;52.678;13.314;2023-12-20T12:03:18;13.30;;;1.65;;
68803;SDS011;55787;52.678;13.314;2023-12-20T12:05:46;16.42;;;2.00;;
68803;SDS011;55787;52.678;13.314;2023-12-20T12:08:14;8.77;;;0.90;;
68803;SDS011;55787;52.678;13.314;2023-12-20T12:10:40;8.10;;;0.75;;
68803;SDS011;55787;52.678;13.314;2023-12-20T12:13:07;7.28;;;0.82;;
68803;SDS011;55787;52.678;13.314;2023-12-20T12:15:34;10.15;;;1.35;;
68803;SDS011;55787;52.678;13.314;2023-12-20T12:18:01;10.48;;;1.40;;
68803;SDS011;55787;52.678;13.314;2023-12-20T12:20:28;16.03;;;1.70;;
68803;SDS011;55787;52.678;13.314;2023-12-20T12:23:03;11.20;;;1.60;;
68803;SDS011;55787;52.678;13.314;2023-12-20T12:25:31;8.82;;;1.52;;
68803;SDS011;55787;52.678;13.314;2023-12-20T12:27:58;9.50;;;1.60;;
68803;SDS011;55787;52.678;13.314;2023-12-20T12:30:26;11.15;;;1.60;;
68803;SDS011;55787;52.678;13.314;2023-12-20T12:32:58;10.27;;;1.50;;
68803;SDS011;55787;52.678;13.314;2023-12-20T12:35:25;10.65;;;2.15;;
68803;SDS011;55787;52.678;13.314;2023-12-20T12:37:51;6.45;;;0.95;;
68803;SDS011;55787;52.678;13.314;2023-12-20T12:40:18;10.18;;;1.45;;
68803;SDS011;55787;52.678;13.314;2023-12-20T12:42:46;8.82;;;1.83;;
68803;SDS011;55787;52.678;13.314;2023-12-20T12:45:13;11.23;;;1.53;;
68803;SDS011;55787;52.678;13.314;2023-12-20T12:47:40;8.45;;;1.42;;
68803;SDS011;55787;52.678;13.314;2023-12-20T12:50:07;11.32;;;1.55;;
68803;SDS011;55787;52.678;13.314;2023-12-20T12:52:35;10.45;;;1.92;;
68803;SDS011;55787;52.678;13.314;2023-12-20T12:55:02;10.35;;;1.95;;
68803;SDS011;55787;52.678;13.314;2023-12-20T12:57:31;13.30;;;2.27;;
68803;SDS011;55787;52.678;13.314;2023-12-20T12:59:58;10.55;;;1.83;;
68803;SDS011;55787;52.678;13.314;2023-12-20T13:02:24;9.68;;;1.77;;
68803;SDS011;55787;52.678;13.314;2023-12-20T13:04:51;10.82;;;1.92;;
68803;SDS011;55787;52.678;13.314;2023-12-20T13:07:19;9.75;;;1.30;;
68803;SDS011;55787;52.678;13.314;2023-12-20T13:09:46;7.30;;;0.90;;
68803;SDS011;55787;52.678;13.314;2023-12-20T13:12:12;6.50;;;0.63;;
68803;SDS011;55787;52.678;13.314;2023-12-20T13:14:39;6.70;;;1.00;;
68803;SDS011;55787;52.678;13.314;2023-12-20T13:17:07;7.30;;;0.93;;
68803;SDS011;55787;52.678;13.314;2023-12-20T13:19:33;6.90;;;0.82;;
68803;SDS011;55787;52.678;13.314;2023-12-20T13:22:00;6.93;;;0.87;;
68803;SDS011;55787;52.678;13.314;2023-12-20T13:24:27;4.50;;;0.50;;
68803;SDS011;55787;52.678;13.314;2023-12-20T13:26:55;5.78;;;0.43;;
68803;SDS011;55787;52.678;13.314;2023-12-20T13:29:21;7.22;;;1.00;;
68803;SDS011;55787;52.678;13.314;2023-12-20T13:31:48;7.05;;;0.75;;
68803;SDS011;55787;52.678;13.314;2023-12-20T13:34:15;6.47;;;0.60;;
68803;SDS011;55787;52.678;13.314;2023-12-20T13:36:43;6.13;;;0.70;;
68803;SDS011;55787;52.678;13.314;2023-12-20T13:39:14;4.85;;;0.55;;
68803;SDS011;55787;52.678;13.314;2023-12-20T13:41:40;3.72;;;0.30;;
68803;SDS011;55787;52.678;13.314;2023-12-20T13:44:07;5.95;;;0.57;;
68803;SDS011;55787;52.678;13.314;2023-12-20T13:46:34;4.73;;;0.23;;
68803;SDS011;55787;52.678;13.314;2023-12-20T13:49:00;3.78;;;0.30;;
68803;SDS011;55787;52.678;13.314;2023-12-20T13:51:28;3.38;;;0.30;;
68803;SDS011;55787;52.678;13.314;2023-12-20T13:53:54;3.05;;;0.28;;
68803;SDS011;55787;52.678;13.314;2023-12-20T13:56:21;4.80;;;0.38;;
68803;SDS011;55787;52.678;13.314;2023-12-20T13:58:49;4.20;;;0.40;;
68803;SDS011;55787;52.678;13.314;2023-12-20T14:01:17;6.00;;;0.30;;
68803;SDS011;55787;52.678;13.314;2023-12-20T14:03:44;6.05;;;0.40;;
68803;SDS011;55787;52.678;13.314;2023-12-20T14:06:10;6.72;;;0.45;;
68803;SDS011;55787;52.678;13.314;2023-12-20T14:08:37;2.58;;;0.30;;
68803;SDS011;55787;52.678;13.314;2023-12-20T14:11:04;3.17;;;0.10;;
68803;SDS011;55787;52.678;13.314;2023-12-20T14:13:31;4.13;;;0.20;;
68803;SDS011;55787;52.678;13.314;2023-12-20T14:15:57;2.95;;;0.20;;
68803;SDS011;55787;52.678;13.314;2023-12-20T14:18:27;2.85;;;0.20;;
68803;SDS011;55787;52.678;13.314;2023-12-20T14:20:53;4.00;;;0.30;;
68803;SDS011;55787;52.678;13.314;2023-12-20T14:23:21;2.40;;;0.10;;
68803;SDS011;55787;52.678;13.314;2023-12-20T14:25:48;3.78;;;0.28;;
68803;SDS011;55787;52.678;13.314;2023-12-20T14:28:18;3.83;;;0.20;;
68803;SDS011;55787;52.678;13.314;2023-12-20T14:30:45;4.50;;;0.30;;
68803;SDS011;55787;52.678;13.314;2023-12-20T14:33:12;2.67;;;0.20;;